Darstellungsparameter: Aktuell verwendete Einstellungen:
Skalierung der Graphiken ... ?
xyx+y,   Skalierungsfaktor:      Skalierung: Modus: x, Faktor: 1
Darstellungszeitraum ... ?
Vom - - bis: - -   Zeitraum: 20.02.2019 - 20.02.2019
Min/Max/Avg-Anzeige ... ?
Zeige MMA aktuell
Zeige MMA Monat
Zeige MMA alles
Zeige --A aktuell
Zeige --A Monat
Zeige --A alles
Keine MMA-Anzeige
MMA:
Keine MMA-Graphiken
MMA-Basis: 20.02.2019 - 20.02.2019
Quicknavigation für Darstellung... ?
Tage:      1T, 2T, 3T, 5T -1T -2T -3T -5T +1T +2T +3T +5T
Wochen: 1W, 2W, 3W -1W -2W -3W +1W +2W +3W
Monate: 1M, 3M, 6M -1M -3M -6M +1M +3M +6M
Jahre:    1J, 3J, 5J, 10J -1J -3J -5J -10J +1J +3J +5J +10J
Nutze für die Darstellung ... ?
Originaldaten oder Mittelwerte auf ...
Stundenbasis Tagesbasis Wochenbasis
Monatsbasis Jahresbasis      Datenbasis: Original-Daten
Darstellen als:
Statistik (Auto) Statistik J:M      Darstellung:
Zur Graphik,    zurück zur Übersicht aller Sensoren.
 
Tabellarische Datenbersicht: ?
 
Sensor: Nr:Datum:Temp:Feuchte:Taupunkt:
Aussen-T/F 1 20-02-2019 00:00:00 2.8 C 93 % 1.78 C
2 20-02-2019 00:05:00 2.8 C 93 % 1.78 C
3 20-02-2019 00:10:00 2.8 C 93 % 1.78 C
4 20-02-2019 00:15:00 2.8 C 93 % 1.78 C
5 20-02-2019 00:20:00 2.8 C 94 % 1.93 C
6 20-02-2019 00:25:00 2.8 C 94 % 1.93 C
7 20-02-2019 00:30:00 2.7 C 93 % 1.68 C
8 20-02-2019 00:35:00 2.5 C 93 % 1.49 C
9 20-02-2019 00:40:00 2.3 C 93 % 1.29 C
10 20-02-2019 00:45:00 2.3 C 93 % 1.29 C
11 20-02-2019 00:50:00 2.3 C 94 % 1.44 C
12 20-02-2019 00:55:00 2.3 C 93 % 1.29 C
13 20-02-2019 01:00:00 2.2 C 93 % 1.19 C
14 20-02-2019 01:05:00 2.2 C 93 % 1.19 C
15 20-02-2019 01:10:00 2.1 C 93 % 1.09 C
16 20-02-2019 01:15:00 2 C 93 % 0.99 C
17 20-02-2019 01:20:00 1.9 C 93 % 0.89 C
18 20-02-2019 01:25:00 1.8 C 94 % 0.94 C
19 20-02-2019 01:30:00 1.7 C 93 % 0.69 C
20 20-02-2019 01:35:00 1.6 C 93 % 0.59 C
21 20-02-2019 01:40:00 1.5 C 93 % 0.49 C
22 20-02-2019 01:45:00 1.5 C 94 % 0.64 C
23 20-02-2019 01:50:00 1.5 C 94 % 0.64 C
24 20-02-2019 01:55:00 1.4 C 94 % 0.54 C
25 20-02-2019 02:00:00 1.4 C 94 % 0.54 C
Sensor: Nr:Datum:Temp:Feuchte:Taupunkt:
Aussen-T/F 26 20-02-2019 02:05:00 1.3 C 94 % 0.44 C
27 20-02-2019 02:10:00 1.3 C 94 % 0.44 C
28 20-02-2019 02:15:00 1.2 C 94 % 0.34 C
29 20-02-2019 02:20:00 1.1 C 94 % 0.24 C
30 20-02-2019 02:25:00 1 C 94 % 0.15 C
31 20-02-2019 02:30:00 1.1 C 94 % 0.24 C
32 20-02-2019 02:35:00 1.1 C 94 % 0.24 C
33 20-02-2019 02:40:00 1.2 C 95 % 0.49 C
34 20-02-2019 02:45:00 1.3 C 95 % 0.59 C
35 20-02-2019 02:50:00 1.2 C 95 % 0.49 C
36 20-02-2019 02:55:00 1.1 C 94 % 0.24 C
37 20-02-2019 03:00:00 1.1 C 94 % 0.24 C
38 20-02-2019 03:05:00 1 C 95 % 0.29 C
39 20-02-2019 03:10:00 1 C 95 % 0.29 C
40 20-02-2019 03:15:00 1 C 95 % 0.29 C
41 20-02-2019 03:20:00 1.1 C 95 % 0.39 C
42 20-02-2019 03:25:00 1.2 C 95 % 0.49 C
43 20-02-2019 03:30:00 1.1 C 95 % 0.39 C
44 20-02-2019 03:35:00 1.1 C 95 % 0.39 C
45 20-02-2019 03:40:00 1.1 C 95 % 0.39 C
46 20-02-2019 03:45:00 1.1 C 95 % 0.39 C
47 20-02-2019 03:50:00 1.2 C 95 % 0.49 C
48 20-02-2019 03:55:00 1.2 C 95 % 0.49 C
49 20-02-2019 04:00:00 1.2 C 95 % 0.49 C
50 20-02-2019 04:05:00 1.1 C 95 % 0.39 C
Sensor: Nr:Datum:Temp:Feuchte:Taupunkt:
Aussen-T/F 51 20-02-2019 04:10:00 1.1 C 95 % 0.39 C
52 20-02-2019 04:15:00 1 C 95 % 0.29 C
53 20-02-2019 04:20:00 0.8 C 95 % 0.09 C
54 20-02-2019 04:25:00 0.7 C 95 % -0.01 C
55 20-02-2019 04:30:00 0.7 C 95 % -0.01 C
56 20-02-2019 04:35:00 0.7 C 95 % -0.01 C
57 20-02-2019 04:40:00 0.8 C 95 % 0.09 C
58 20-02-2019 04:45:00 0.8 C 95 % 0.09 C
59 20-02-2019 04:50:00 0.8 C 95 % 0.09 C
60 20-02-2019 04:55:00 0.8 C 95 % 0.09 C
61 20-02-2019 05:00:00 1 C 96 % 0.44 C
62 20-02-2019 05:05:00 1.1 C 96 % 0.54 C
63 20-02-2019 05:10:00 1.1 C 96 % 0.54 C
64 20-02-2019 05:15:00 1.1 C 95 % 0.39 C
65 20-02-2019 05:20:00 1.1 C 95 % 0.39 C
66 20-02-2019 05:25:00 1 C 95 % 0.29 C
67 20-02-2019 05:30:00 0.9 C 95 % 0.19 C
68 20-02-2019 05:35:00 0.9 C 95 % 0.19 C
69 20-02-2019 05:40:00 0.9 C 95 % 0.19 C
70 20-02-2019 05:45:00 0.9 C 96 % 0.34 C
71 20-02-2019 05:50:00 1 C 96 % 0.44 C
72 20-02-2019 05:55:00 1 C 96 % 0.44 C
73 20-02-2019 06:00:00 0.9 C 96 % 0.34 C
74 20-02-2019 06:05:00 1 C 96 % 0.44 C
75 20-02-2019 06:10:00 1.1 C 96 % 0.54 C
Sensor: Nr:Datum:Temp:Feuchte:Taupunkt:
Aussen-T/F 76 20-02-2019 06:15:00 1 C 96 % 0.44 C
77 20-02-2019 06:20:00 0.9 C 96 % 0.34 C
78 20-02-2019 06:25:00 0.9 C 96 % 0.34 C
79 20-02-2019 06:30:00 0.9 C 96 % 0.34 C
80 20-02-2019 06:35:00 0.9 C 95 % 0.19 C
81 20-02-2019 06:40:00 0.8 C 95 % 0.09 C
82 20-02-2019 06:45:00 0.7 C 95 % -0.01 C
83 20-02-2019 06:50:00 0.6 C 95 % -0.11 C
84 20-02-2019 06:55:00 0.7 C 96 % 0.14 C
85 20-02-2019 07:00:00 0.8 C 96 % 0.24 C
86 20-02-2019 07:05:00 0.8 C 96 % 0.24 C
87 20-02-2019 07:10:00 0.8 C 96 % 0.24 C
88 20-02-2019 07:15:00 0.9 C 96 % 0.34 C
89 20-02-2019 07:20:00 0.8 C 96 % 0.24 C
90 20-02-2019 07:25:00 0.7 C 96 % 0.14 C
91 20-02-2019 07:30:00 0.8 C 96 % 0.24 C
92 20-02-2019 07:35:00 0.7 C 96 % 0.14 C
93 20-02-2019 07:40:00 0.7 C 96 % 0.14 C
94 20-02-2019 07:45:00 0.6 C 96 % 0.04 C
95 20-02-2019 07:50:00 0.6 C 96 % 0.04 C
96 20-02-2019 07:55:00 0.6 C 96 % 0.04 C
97 20-02-2019 08:00:00 0.6 C 96 % 0.04 C
98 20-02-2019 08:05:00 0.7 C 96 % 0.14 C
99 20-02-2019 08:10:00 0.8 C 96 % 0.24 C
100 20-02-2019 08:15:00 0.9 C 96 % 0.34 C
Sensor: Nr:Datum:Temp:Feuchte:Taupunkt:
Aussen-T/F 101 20-02-2019 08:20:00 1.1 C 96 % 0.54 C
102 20-02-2019 08:25:00 1.2 C 96 % 0.63 C
103 20-02-2019 08:30:00 1.3 C 96 % 0.73 C
104 20-02-2019 08:35:00 1.4 C 96 % 0.83 C
105 20-02-2019 08:40:00 1.6 C 97 % 1.18 C
106 20-02-2019 08:45:00 1.8 C 97 % 1.38 C
107 20-02-2019 08:50:00 2 C 97 % 1.58 C
108 20-02-2019 08:55:00 2.3 C 97 % 1.87 C
109 20-02-2019 09:00:00 2.5 C 97 % 2.07 C
110 20-02-2019 09:05:00 2.7 C 97 % 2.27 C
111 20-02-2019 09:10:00 2.8 C 97 % 2.37 C
112 20-02-2019 09:15:00 2.8 C 97 % 2.37 C
113 20-02-2019 09:20:00 2.9 C 97 % 2.47 C
114 20-02-2019 09:25:00 3 C 97 % 2.57 C
115 20-02-2019 09:30:00 3.1 C 97 % 2.67 C
116 20-02-2019 09:35:00 3.3 C 97 % 2.87 C
117 20-02-2019 09:40:00 3.3 C 96 % 2.72 C
118 20-02-2019 09:45:00 3.4 C 96 % 2.82 C
119 20-02-2019 09:50:00 3.6 C 96 % 3.02 C
120 20-02-2019 09:55:00 3.7 C 96 % 3.12 C
121 20-02-2019 10:00:00 3.8 C 96 % 3.22 C
122 20-02-2019 10:05:00 3.8 C 96 % 3.22 C
123 20-02-2019 10:10:00 3.9 C 96 % 3.32 C
124 20-02-2019 10:15:00 4.1 C 96 % 3.52 C
125 20-02-2019 10:20:00 4.2 C 96 % 3.62 C
Sensor: Nr:Datum:Temp:Feuchte:Taupunkt:
Aussen-T/F 126 20-02-2019 10:25:00 4.3 C 96 % 3.72 C
127 20-02-2019 10:30:00 4.4 C 96 % 3.82 C
128 20-02-2019 10:35:00 4.6 C 96 % 4.02 C
129 20-02-2019 10:40:00 4.7 C 95 % 3.97 C
130 20-02-2019 10:45:00 4.9 C 95 % 4.17 C
131 20-02-2019 10:50:00 5 C 95 % 4.27 C
132 20-02-2019 10:55:00 5.2 C 95 % 4.47 C
133 20-02-2019 11:00:00 5.4 C 95 % 4.66 C
134 20-02-2019 11:05:00 5.7 C 94 % 4.81 C
135 20-02-2019 11:10:00 5.8 C 94 % 4.91 C
136 20-02-2019 11:15:00 5.9 C 93 % 4.86 C
137 20-02-2019 11:20:00 6 C 92 % 4.8 C
138 20-02-2019 11:25:00 6.1 C 92 % 4.9 C
139 20-02-2019 11:30:00 6.2 C 92 % 5 C
140 20-02-2019 11:35:00 6.3 C 91 % 4.94 C
141 20-02-2019 11:40:00 6.3 C 91 % 4.94 C
142 20-02-2019 11:45:00 6.3 C 91 % 4.94 C
143 20-02-2019 11:50:00 6.4 C 91 % 5.04 C
144 20-02-2019 11:55:00 6.5 C 90 % 4.98 C
145 20-02-2019 12:00:00 6.6 C 90 % 5.08 C
146 20-02-2019 12:05:00 6.7 C 90 % 5.18 C
147 20-02-2019 12:10:00 6.7 C 90 % 5.18 C
148 20-02-2019 12:15:00 6.9 C 90 % 5.38 C
149 20-02-2019 12:20:00 7.1 C 90 % 5.57 C
150 20-02-2019 12:25:00 7.3 C 89 % 5.61 C
Sensor: Nr:Datum:Temp:Feuchte:Taupunkt:
Aussen-T/F 151 20-02-2019 12:30:00 7.6 C 89 % 5.91 C
152 20-02-2019 12:35:00 7.7 C 87 % 5.68 C
153 20-02-2019 12:40:00 8 C 87 % 5.97 C
154 20-02-2019 12:45:00 8.2 C 86 % 6 C
155 20-02-2019 12:50:00 8.4 C 85 % 6.03 C
156 20-02-2019 12:55:00 8.7 C 83 % 5.98 C
157 20-02-2019 13:00:00 8.9 C 82 % 6 C
158 20-02-2019 13:05:00 9.1 C 82 % 6.19 C
159 20-02-2019 13:10:00 9.3 C 81 % 6.21 C
160 20-02-2019 13:15:00 9.5 C 80 % 6.23 C
161 20-02-2019 13:20:00 9.8 C 79 % 6.34 C
162 20-02-2019 13:25:00 9.9 C 78 % 6.25 C
163 20-02-2019 13:30:00 10.1 C 77 % 6.26 C
164 20-02-2019 13:35:00 10.2 C 77 % 6.35 C
165 20-02-2019 13:40:00 10.2 C 76 % 6.16 C
166 20-02-2019 13:45:00 10.3 C 76 % 6.26 C
167 20-02-2019 13:50:00 10.4 C 76 % 6.36 C
168 20-02-2019 13:55:00 10.7 C 75 % 6.46 C
169 20-02-2019 14:00:00 10.9 C 75 % 6.65 C
170 20-02-2019 14:05:00 10.9 C 74 % 6.45 C
171 20-02-2019 14:10:00 10.9 C 74 % 6.45 C
172 20-02-2019 14:15:00 10.8 C 74 % 6.36 C
173 20-02-2019 14:20:00 10.8 C 75 % 6.55 C
174 20-02-2019 14:25:00 10.8 C 75 % 6.55 C
175 20-02-2019 14:30:00 10.8 C 75 % 6.55 C
Sensor: Nr:Datum:Temp:Feuchte:Taupunkt:
Aussen-T/F 176 20-02-2019 14:35:00 10.8 C 74 % 6.36 C
177 20-02-2019 14:40:00 10.9 C 74 % 6.45 C
178 20-02-2019 14:45:00 10.9 C 74 % 6.45 C
179 20-02-2019 14:50:00 10.9 C 74 % 6.45 C
180 20-02-2019 14:55:00 10.9 C 74 % 6.45 C
181 20-02-2019 15:00:00 11 C 74 % 6.55 C
182 20-02-2019 15:05:00 11 C 74 % 6.55 C
183 20-02-2019 15:10:00 11.1 C 73 % 6.45 C
184 20-02-2019 15:15:00 11.1 C 73 % 6.45 C
185 20-02-2019 15:20:00 11.1 C 73 % 6.45 C
186 20-02-2019 15:25:00 11.1 C 73 % 6.45 C
187 20-02-2019 15:30:00 11 C 73 % 6.35 C
188 20-02-2019 15:35:00 11.1 C 73 % 6.45 C
189 20-02-2019 15:40:00 11.1 C 73 % 6.45 C
190 20-02-2019 15:45:00 11.1 C 73 % 6.45 C
191 20-02-2019 15:50:00 11.1 C 72 % 6.25 C
192 20-02-2019 15:55:00 11.2 C 72 % 6.35 C
193 20-02-2019 16:00:00 11.3 C 71 % 6.24 C
194 20-02-2019 16:05:00 11.3 C 73 % 6.64 C
195 20-02-2019 16:10:00 11.3 C 72 % 6.44 C
196 20-02-2019 16:15:00 11.3 C 72 % 6.44 C
197 20-02-2019 16:20:00 11.3 C 71 % 6.24 C
198 20-02-2019 16:25:00 11.3 C 72 % 6.44 C
199 20-02-2019 16:30:00 11.2 C 71 % 6.14 C
200 20-02-2019 16:35:00 11.3 C 71 % 6.24 C
Sensor: Nr:Datum:Temp:Feuchte:Taupunkt:
Aussen-T/F 201 20-02-2019 16:40:00 11.3 C 71 % 6.24 C
202 20-02-2019 16:45:00 11.5 C 71 % 6.43 C
203 20-02-2019 16:50:00 11.7 C 71 % 6.62 C
204 20-02-2019 16:55:00 11.7 C 69 % 6.21 C
205 20-02-2019 17:00:00 11.7 C 69 % 6.21 C
206 20-02-2019 17:05:00 11.5 C 71 % 6.43 C
207 20-02-2019 17:10:00 11.3 C 71 % 6.24 C
208 20-02-2019 17:15:00 11.1 C 72 % 6.25 C
209 20-02-2019 17:20:00 10.9 C 73 % 6.26 C
210 20-02-2019 17:25:00 10.7 C 74 % 6.26 C
211 20-02-2019 17:30:00 10.4 C 74 % 5.97 C
212 20-02-2019 17:35:00 10.1 C 75 % 5.88 C
213 20-02-2019 17:40:00 9.7 C 76 % 5.68 C
214 20-02-2019 17:45:00 9.3 C 77 % 5.48 C
215 20-02-2019 17:50:00 8.9 C 78 % 5.28 C
216 20-02-2019 17:55:00 8.6 C 79 % 5.17 C
217 20-02-2019 18:00:00 8.3 C 80 % 5.06 C
218 20-02-2019 18:05:00 8 C 81 % 4.94 C
219 20-02-2019 18:10:00 7.7 C 82 % 4.83 C
220 20-02-2019 18:15:00 7.6 C 83 % 4.9 C
221 20-02-2019 18:20:00 7.4 C 84 % 4.88 C
222 20-02-2019 18:25:00 7.2 C 84 % 4.68 C
223 20-02-2019 18:30:00 7.1 C 85 % 4.75 C
224 20-02-2019 18:35:00 7 C 85 % 4.66 C
225 20-02-2019 18:40:00 6.9 C 85 % 4.56 C
Sensor: Nr:Datum:Temp:Feuchte:Taupunkt:
Aussen-T/F 226 20-02-2019 18:45:00 6.8 C 86 % 4.63 C
227 20-02-2019 18:50:00 6.8 C 86 % 4.63 C
228 20-02-2019 18:55:00 6.7 C 86 % 4.53 C
229 20-02-2019 19:00:00 6.6 C 86 % 4.43 C
230 20-02-2019 19:05:00 6.5 C 86 % 4.33 C
231 20-02-2019 19:10:00 6.4 C 87 % 4.4 C
232 20-02-2019 19:15:00 6.3 C 87 % 4.3 C
233 20-02-2019 19:20:00 6.3 C 87 % 4.3 C
234 20-02-2019 19:25:00 6.2 C 88 % 4.36 C
235 20-02-2019 19:30:00 6.1 C 88 % 4.27 C
236 20-02-2019 19:35:00 6.1 C 88 % 4.27 C
237 20-02-2019 19:40:00 5.9 C 88 % 4.07 C
238 20-02-2019 19:45:00 5.9 C 89 % 4.23 C
239 20-02-2019 19:50:00 5.9 C 89 % 4.23 C
240 20-02-2019 19:55:00 5.8 C 89 % 4.13 C
241 20-02-2019 20:00:00 5.6 C 88 % 3.77 C
242 20-02-2019 20:05:00 5.4 C 88 % 3.58 C
243 20-02-2019 20:10:00 5.2 C 89 % 3.54 C
244 20-02-2019 20:15:00 5.2 C 89 % 3.54 C
245 20-02-2019 20:20:00 5.1 C 90 % 3.6 C
246 20-02-2019 20:25:00 4.9 C 90 % 3.4 C
247 20-02-2019 20:30:00 4.8 C 90 % 3.3 C
248 20-02-2019 20:35:00 4.6 C 90 % 3.1 C
249 20-02-2019 20:40:00 4.4 C 90 % 2.91 C
250 20-02-2019 20:45:00 4.4 C 91 % 3.06 C
Sensor: Nr:Datum:Temp:Feuchte:Taupunkt:
Aussen-T/F 251 20-02-2019 20:50:00 4.4 C 91 % 3.06 C
252 20-02-2019 20:55:00 4.4 C 91 % 3.06 C
253 20-02-2019 21:00:00 4.4 C 92 % 3.22 C
254 20-02-2019 21:05:00 4.3 C 91 % 2.96 C
255 20-02-2019 21:10:00 4.2 C 91 % 2.87 C
256 20-02-2019 21:15:00 4.1 C 91 % 2.77 C
257 20-02-2019 21:20:00 3.8 C 90 % 2.31 C
258 20-02-2019 21:25:00 3.7 C 91 % 2.37 C
259 20-02-2019 21:30:00 3.6 C 92 % 2.42 C
260 20-02-2019 21:35:00 3.6 C 92 % 2.42 C
261 20-02-2019 21:40:00 3.6 C 92 % 2.42 C
262 20-02-2019 21:45:00 3.4 C 92 % 2.23 C
263 20-02-2019 21:50:00 3.4 C 92 % 2.23 C
264 20-02-2019 21:55:00 3.2 C 92 % 2.03 C
265 20-02-2019 22:00:00 3.2 C 92 % 2.03 C
266 20-02-2019 22:05:00 3.1 C 92 % 1.93 C
267 20-02-2019 22:10:00 2.9 C 92 % 1.73 C
268 20-02-2019 22:15:00 2.8 C 92 % 1.63 C
269 20-02-2019 22:20:00 2.7 C 92 % 1.53 C
270 20-02-2019 22:25:00 2.6 C 93 % 1.59 C
271 20-02-2019 22:30:00 2.5 C 93 % 1.49 C
272 20-02-2019 22:35:00 2.6 C 93 % 1.59 C
273 20-02-2019 22:40:00 2.6 C 94 % 1.73 C
274 20-02-2019 22:45:00 2.6 C 94 % 1.73 C
275 20-02-2019 22:50:00 2.5 C 94 % 1.63 C
Sensor: Nr:Datum:Temp:Feuchte:Taupunkt:
Aussen-T/F 276 20-02-2019 22:55:00 2.3 C 93 % 1.29 C
277 20-02-2019 23:00:00 2.2 C 94 % 1.34 C
278 20-02-2019 23:05:00 2.3 C 94 % 1.44 C
279 20-02-2019 23:10:00 2.4 C 94 % 1.54 C
280 20-02-2019 23:15:00 2.3 C 94 % 1.44 C
281 20-02-2019 23:20:00 2.2 C 94 % 1.34 C
282 20-02-2019 23:25:00 1.9 C 94 % 1.04 C
283 20-02-2019 23:30:00 1.8 C 94 % 0.94 C
284 20-02-2019 23:35:00 1.9 C 94 % 1.04 C
285 20-02-2019 23:40:00 1.9 C 94 % 1.04 C
286 20-02-2019 23:45:00 2 C 95 % 1.29 C
287 20-02-2019 23:50:00 2.2 C 95 % 1.48 C
288 20-02-2019 23:55:00 2.2 C 95 % 1.48 C

Legende:
   Min
   Max


Maximal/Minimal-Werte vom 20.02.2019 - 20.02.2019

Sensor Min Max Avg
Temp
(Aussen-T/F)
0.6 °C
20-02-2019  06:50:00
11.7 °C
20-02-2019  16:50:00
4.71 °C
Feuchte
(Aussen-T/F)
69 %
20-02-2019  16:55:00
97 %
20-02-2019  08:40:00
89.07 %
Taupunkt
(Aussen-T/F)
-0.11 C
20-02-2019  06:50:00
6.65 C
20-02-2019  14:00:00
2.95 C

Die Daten stammen von einer Davis Vantage Pro 2 Wetter-Station und werden unter Linux mit der Software wview2wettercgi und aufbereitet. Alle Angaben erfolgen ohne Gewähr für ihre Vollständigkeit oder Richtigkeit.
Kontakt: Rainer Krienke krienke@uni-koblenz.de . Meine Webseiten an der Uni Koblenz oder privat.
Version: $Revision: 0.78 $